Time;durP1;ratioP1;P1;durP2;ratioP2;P2;SDS_P1;SDS_P2;PMS_P1;PMS_P2;Temp;Humidity;BMP_temperature;BMP_pressure;BME280_temperature;BME280_humidity;BME280_pressure;Samples;Min_cycle;Max_cycle;Signal;HPM_P1;HPM_P2
2022/12/23 00:01:36;;;;;;;107.70;54.13;;;;;;;2.55;100.00;100177.34;1435313;91;22239;-83
2022/12/23 00:04:03;;;;;;;102.30;55.43;;;;;;;2.61;100.00;100171.70;1438315;91;22099;-83
2022/12/23 00:06:29;;;;;;;113.90;55.63;;;;;;;2.66;100.00;100165.22;1440636;91;23149;-83
2022/12/23 00:09:00;;;;;;;122.40;55.90;;;;;;;2.68;100.00;100169.88;1412194;91;22052;-82
2022/12/23 00:11:25;;;;;;;102.27;52.90;;;;;;;2.70;100.00;100168.02;1435707;91;22135;-84
2022/12/23 00:16:36;;;;;;;107.50;55.90;;;;;;;2.61;100.00;100162.08;1434728;91;22123;-85
2022/12/23 00:19:03;;;;;;;104.00;55.97;;;;;;;2.56;100.00;100161.57;1430462;91;22262;-85
2022/12/23 00:21:30;;;;;;;107.67;56.77;;;;;;;2.56;100.00;100166.80;1437950;91;22055;-85
2022/12/23 00:23:56;;;;;;;101.63;57.30;;;;;;;2.55;100.00;100156.44;1437433;91;22407;-85
2022/12/23 00:26:25;;;;;;;107.33;57.63;;;;;;;2.58;100.00;100158.36;1434751;91;22129;-85
2022/12/23 00:28:53;;;;;;;110.53;54.37;;;;;;;2.64;100.00;100151.42;1429729;91;22240;-84
2022/12/23 00:31:20;;;;;;;99.20;55.50;;;;;;;2.73;100.00;100149.13;1438545;91;22100;-84
2022/12/23 00:33:49;;;;;;;107.83;56.90;;;;;;;2.73;100.00;100149.13;1435868;91;23074;-86
2022/12/23 00:36:26;;;;;;;101.97;54.17;;;;;;;2.75;100.00;100148.56;1435736;91;22280;-85
2022/12/23 00:44:24;;;;;;;101.43;53.47;;;;;;;2.73;100.00;100138.67;1427995;91;22128;-84
2022/12/23 00:46:50;;;;;;;92.87;47.97;;;;;;;2.82;100.00;100148.05;1438745;91;22386;-83
2022/12/23 00:52:06;;;;;;;93.97;50.80;;;;;;;2.86;100.00;100142.96;1434850;91;22060;-83
2022/12/23 00:54:32;;;;;;;97.73;51.80;;;;;;;2.83;100.00;100143.17;1428583;91;22098;-85
2022/12/23 00:56:59;;;;;;;101.53;53.07;;;;;;;2.85;100.00;100160.05;1431245;91;22816;-83
2022/12/23 00:59:25;;;;;;;105.57;57.10;;;;;;;2.85;100.00;100154.81;1441975;91;22098;-82
2022/12/23 01:07:23;;;;;;;92.00;51.57;;;;;;;2.95;100.00;100146.72;1432286;91;22320;-83
2022/12/23 01:09:49;;;;;;;93.93;51.13;;;;;;;3.01;100.00;100134.53;1430018;91;22154;-84
2022/12/23 01:12:15;;;;;;;96.80;49.73;;;;;;;3.06;100.00;100133.75;1427565;91;22242;-84
2022/12/23 01:14:42;;;;;;;95.73;51.13;;;;;;;3.09;100.00;100132.22;1423126;91;21989;-84
2022/12/23 01:17:08;;;;;;;94.33;50.80;;;;;;;3.10;100.00;100124.73;1429160;91;22054;-83
2022/12/23 01:19:34;;;;;;;94.80;52.83;;;;;;;3.09;100.00;100124.38;1430224;91;22158;-83
2022/12/23 01:22:00;;;;;;;98.03;54.10;;;;;;;3.07;100.00;100127.56;1430086;91;23158;-82
2022/12/23 01:24:30;;;;;;;92.20;50.27;;;;;;;3.07;100.00;100118.89;1444514;90;22144;-82
2022/12/23 01:26:56;;;;;;;89.87;47.50;;;;;;;3.08;100.00;100116.62;1444280;89;22171;-83
2022/12/23 01:29:23;;;;;;;93.70;50.37;;;;;;;3.10;100.00;100125.20;1453179;90;22127;-83
2022/12/23 01:31:50;;;;;;;95.03;49.93;;;;;;;3.12;100.00;100128.08;1378704;89;22964;-82
2022/12/23 01:34:16;;;;;;;82.53;45.87;;;;;;;3.15;100.00;100130.48;1385336;90;22003;-81
2022/12/23 01:36:43;;;;;;;87.10;49.87;;;;;;;3.18;100.00;100125.52;1379073;90;22217;-84
2022/12/23 01:39:09;;;;;;;94.63;52.97;;;;;;;3.19;100.00;100130.27;1430767;90;22963;-81
2022/12/23 01:44:59;;;;;;;98.30;56.37;;;;;;;3.16;100.00;100132.17;1404706;93;22325;-83
2022/12/23 01:47:55;;;;;;;96.73;54.30;;;;;;;3.13;100.00;100131.53;1442971;89;22264;-84
2022/12/23 01:50:42;;;;;;;86.17;50.77;;;;;;;3.10;100.00;100127.34;1456565;90;22204;-83
2022/12/23 01:53:28;;;;;;;97.07;51.60;;;;;;;3.10;100.00;100111.66;1453373;90;22199;-82
2022/12/23 01:56:18;;;;;;;89.33;50.93;;;;;;;3.13;100.00;100111.91;1447013;89;22182;-83
2022/12/23 01:58:55;;;;;;;80.40;48.67;;;;;;;3.14;100.00;100119.67;1447763;90;22120;-83
2022/12/23 02:04:11;;;;;;;93.10;53.50;;;;;;;3.23;100.00;100126.51;1453044;89;22127;-84
2022/12/23 02:09:32;;;;;;;92.30;52.87;;;;;;;3.23;100.00;100113.43;1457861;89;20799;-85
2022/12/23 02:12:31;;;;;;;88.30;48.87;;;;;;;3.21;100.00;100120.55;1455187;89;22170;-84
2022/12/23 02:18:40;;;;;;;88.07;50.83;;;;;;;3.17;100.00;100114.70;1451173;89;22095;-83
2022/12/23 02:21:21;;;;;;;82.97;48.80;;;;;;;3.18;100.00;100108.98;1372998;93;22179;-85
2022/12/23 02:24:11;;;;;;;88.17;48.80;;;;;;;3.22;100.00;100107.81;1424027;91;22237;-84
2022/12/23 02:27:16;;;;;;;94.20;49.60;;;;;;;3.23;100.00;100102.49;1456704;89;21376;-84
2022/12/23 02:30:03;;;;;;;90.10;49.43;;;;;;;3.25;100.00;100115.00;1458881;89;22220;-84
2022/12/23 02:32:59;;;;;;;90.63;51.23;;;;;;;3.28;100.00;100112.16;1456563;90;22186;-82
2022/12/23 02:35:45;;;;;;;95.87;54.23;;;;;;;3.30;100.00;100104.19;1453970;90;23015;-84
2022/12/23 02:38:32;;;;;;;88.73;51.40;;;;;;;3.26;100.00;100097.05;1443942;90;22158;-85
2022/12/23 02:41:10;;;;;;;88.33;49.87;;;;;;;3.24;100.00;100096.78;1404585;90;22265;-84
2022/12/23 02:43:59;;;;;;;85.93;51.10;;;;;;;3.20;100.00;100099.27;1454414;90;22223;-84
2022/12/23 02:46:37;;;;;;;84.47;48.13;;;;;;;3.16;100.00;100094.25;1452261;90;22118;-85
2022/12/23 02:49:21;;;;;;;88.03;51.20;;;;;;;3.17;100.00;100075.47;1447310;90;22244;-84
2022/12/23 02:51:51;;;;;;;85.90;50.77;;;;;;;3.15;100.00;100062.48;1451822;90;22544;-84
2022/12/23 02:54:26;;;;;;;98.07;51.85;;;;;;;3.14;100.00;100055.59;1456768;90;22126;-84
2022/12/23 02:56:54;;;;;;;89.73;51.30;;;;;;;3.14;100.00;100069.98;1453479;90;21552;-84
2022/12/23 02:59:25;;;;;;;87.13;50.57;;;;;;;3.09;100.00;100096.92;1452275;90;22359;-83
2022/12/23 03:01:53;;;;;;;97.40;56.17;;;;;;;3.08;100.00;100097.02;1454058;89;23117;-84
2022/12/23 03:04:19;;;;;;;101.10;58.77;;;;;;;3.04;100.00;100095.09;1430418;91;22083;-85
2022/12/23 03:06:51;;;;;;;102.03;54.67;;;;;;;3.01;100.00;100086.16;1407034;91;22267;-84
2022/12/23 03:09:29;;;;;;;95.00;55.27;;;;;;;3.02;100.00;100085.23;1410543;91;22174;-83
2022/12/23 03:12:40;;;;;;;100.87;55.53;;;;;;;3.01;100.00;100074.39;1435199;91;22171;-84
2022/12/23 03:15:39;;;;;;;;;;;;;;;3.05;100.00;100081.55;1421315;91;22385;-82
2022/12/23 03:18:25;;;;;;;97.03;54.70;;;;;;;3.05;100.00;100073.25;1431887;91;20354;-84
2022/12/23 03:21:06;;;;;;;97.13;57.37;;;;;;;3.06;100.00;100067.06;1431100;91;22105;-84
2022/12/23 03:23:38;;;;;;;110.42;63.25;;;;;;;3.04;100.00;100070.25;1427484;91;22339;-84
2022/12/23 03:26:24;;;;;;;131.37;69.93;;;;;;;3.06;100.00;100062.32;1431800;91;21387;-83
2022/12/23 03:28:59;;;;;;;111.53;61.03;;;;;;;3.03;100.00;100063.84;1438353;91;22512;-82
2022/12/23 03:31:30;;;;;;;109.47;63.40;;;;;;;2.99;100.00;100071.05;1463783;89;22132;-84
2022/12/23 03:34:13;;;;;;;102.85;60.95;;;;;;;2.99;100.00;100064.51;1469901;89;22080;-83
2022/12/23 03:36:51;;;;;;;102.37;59.37;;;;;;;2.97;100.00;100065.59;1458490;89;21486;-85
2022/12/23 03:39:22;;;;;;;98.17;56.20;;;;;;;2.96;100.00;100062.11;1456077;89;22976;-84
2022/12/23 03:41:54;;;;;;;;;;;;;;;2.96;100.00;100073.88;1460629;89;22042;-84
2022/12/23 03:44:29;;;;;;;119.73;65.30;;;;;;;2.93;100.00;100074.09;1467011;89;20776;-82
2022/12/23 03:47:12;;;;;;;109.27;63.50;;;;;;;2.92;100.00;100076.35;1464548;89;22319;-86
2022/12/23 03:49:52;;;;;;;113.80;61.77;;;;;;;2.90;100.00;100075.61;1455269;89;22307;-84
2022/12/23 03:52:23;;;;;;;121.62;65.00;;;;;;;2.89;100.00;100076.57;1450948;89;22189;-84
2022/12/23 03:54:55;;;;;;;100.33;58.47;;;;;;;2.88;100.00;100073.12;1460565;89;21449;-85
2022/12/23 03:57:42;;;;;;;104.92;59.35;;;;;;;2.89;100.00;100075.27;1466051;89;22199;-83
2022/12/23 04:00:10;;;;;;;106.37;59.93;;;;;;;2.91;100.00;100068.98;1456049;89;21500;-84
2022/12/23 04:03:00;;;;;;;97.43;56.43;;;;;;;2.95;100.00;100068.30;1455313;89;23543;-84
2022/12/23 04:05:31;;;;;;;100.67;57.97;;;;;;;2.97;100.00;100064.28;1461761;89;22189;-85
2022/12/23 04:08:14;;;;;;;103.15;61.13;;;;;;;3.01;100.00;100063.11;1470171;89;23294;-85
2022/12/23 04:10:41;;;;;;;120.43;66.40;;;;;;;3.04;100.00;100060.27;1461239;89;21485;-84
2022/12/23 04:13:07;;;;;;;126.33;68.60;;;;;;;3.04;100.00;100068.12;1463774;89;22050;-83
2022/12/23 04:15:39;;;;;;;110.97;60.63;;;;;;;3.03;100.00;100061.23;1458345;89;22100;-84
2022/12/23 04:18:05;;;;;;;112.30;64.97;;;;;;;3.00;100.00;100056.22;1452979;89;22132;-83
2022/12/23 04:20:31;;;;;;;113.30;62.73;;;;;;;3.06;100.00;100063.15;1465144;89;22073;-84
2022/12/23 04:22:57;;;;;;;117.53;63.63;;;;;;;3.06;100.00;100063.15;1457310;89;22085;-84
2022/12/23 04:25:24;;;;;;;110.20;60.53;;;;;;;3.06;100.00;100057.92;1438578;89;22072;-85
2022/12/23 04:27:50;;;;;;;112.53;61.37;;;;;;;3.07;100.00;100066.59;1462812;89;22104;-84
2022/12/23 04:30:17;;;;;;;113.70;61.80;;;;;;;3.03;100.00;100067.77;1456135;89;22097;-84
2022/12/23 04:32:44;;;;;;;129.57;69.27;;;;;;;3.01;100.00;100063.94;1459332;89;22153;-84
2022/12/23 04:35:11;;;;;;;144.20;71.13;;;;;;;3.00;100.00;100066.20;1459158;89;22999;-83
2022/12/23 04:37:38;;;;;;;126.50;68.13;;;;;;;2.94;100.00;100061.41;1463923;89;22195;-85
2022/12/23 04:40:06;;;;;;;122.97;65.50;;;;;;;2.92;100.00;100065.89;1456562;89;23091;-84
2022/12/23 04:42:33;;;;;;;132.80;66.27;;;;;;;2.91;100.00;100064.23;1453906;89;23198;-84
2022/12/23 04:44:59;;;;;;;122.67;62.17;;;;;;;2.94;100.00;100061.41;1458769;89;22251;-84
2022/12/23 04:47:26;;;;;;;121.00;68.17;;;;;;;2.95;100.00;100066.98;1454734;89;22185;-82
2022/12/23 04:49:52;;;;;;;123.43;66.40;;;;;;;2.98;100.00;100058.92;1455090;89;22149;-81
2022/12/23 04:52:18;;;;;;;136.10;68.07;;;;;;;2.99;100.00;100061.89;1457771;89;22999;-82
2022/12/23 04:54:44;;;;;;;141.07;70.53;;;;;;;3.00;100.00;100053.13;1461768;89;22115;-83
2022/12/23 04:57:10;;;;;;;131.97;70.90;;;;;;;3.03;100.00;100050.30;1462821;89;22033;-84
2022/12/23 04:59:37;;;;;;;149.20;73.20;;;;;;;3.04;100.00;100055.88;1462129;89;22094;-82
2022/12/23 05:02:03;;;;;;;147.23;76.40;;;;;;;3.04;100.00;100062.41;1466861;89;23238;-83
2022/12/23 05:04:29;;;;;;;144.70;74.20;;;;;;;3.02;100.00;100064.32;1429412;90;22246;-82
2022/12/23 05:06:56;;;;;;;130.40;68.10;;;;;;;3.02;100.00;100060.84;1449369;90;22114;-83
2022/12/23 05:09:22;;;;;;;132.27;68.93;;;;;;;3.03;100.00;100063.84;1440544;90;22130;-83
2022/12/23 05:11:51;;;;;;;141.87;72.30;;;;;;;3.07;100.00;100066.59;1453172;90;23048;-81
2022/12/23 05:14:17;;;;;;;139.57;68.73;;;;;;;3.12;100.00;100077.57;1442216;90;22201;-82
2022/12/23 05:16:43;;;;;;;138.90;68.20;;;;;;;3.13;100.00;100070.91;1436303;90;23132;-83
2022/12/23 05:19:10;;;;;;;144.83;68.83;;;;;;;3.17;100.00;100075.47;1445441;90;22576;-84
2022/12/23 05:21:36;;;;;;;139.60;71.27;;;;;;;3.24;100.00;100078.48;1453046;90;22187;-83
2022/12/23 05:24:02;;;;;;;135.73;73.07;;;;;;;3.29;100.00;100077.20;1449128;90;21517;-81
2022/12/23 05:26:29;;;;;;;160.03;77.70;;;;;;;3.32;100.00;100078.77;1456454;90;22075;-84
2022/12/23 05:28:55;;;;;;;142.90;70.33;;;;;;;3.33;100.00;100078.64;1441649;90;22227;-87
2022/12/23 05:31:21;;;;;;;147.97;69.10;;;;;;;3.31;100.00;100082.31;1447412;90;23167;-85
2022/12/23 05:33:47;;;;;;;146.30;70.67;;;;;;;3.31;100.00;100082.31;1452998;90;22106;-85
2022/12/23 05:36:14;;;;;;;150.70;75.67;;;;;;;3.31;100.00;100075.33;1439576;90;22151;-85
2022/12/23 05:38:43;;;;;;;156.63;74.77;;;;;;;3.34;100.00;100074.27;1440008;90;22057;-85
2022/12/23 05:41:10;;;;;;;152.30;77.00;;;;;;;3.37;100.00;100081.90;1444067;90;23088;-85
2022/12/23 05:43:36;;;;;;;145.70;72.40;;;;;;;3.39;100.00;100074.31;1451536;90;22079;-88
2022/12/23 05:46:02;;;;;;;150.70;72.83;;;;;;;3.42;100.00;100074.53;1441678;90;22079;-87
2022/12/23 05:48:28;;;;;;;153.97;75.23;;;;;;;3.42;100.00;100078.94;1440875;90;21508;-88
2022/12/23 05:50:55;;;;;;;166.27;77.83;;;;;;;3.43;100.00;100080.14;1442152;90;22116;-85
2022/12/23 05:53:22;;;;;;;166.03;76.07;;;;;;;3.43;100.00;100081.94;1443602;90;22290;-87
2022/12/23 05:55:49;;;;;;;150.13;75.93;;;;;;;3.37;100.00;100079.28;1451715;90;22074;-87
2022/12/23 05:58:16;;;;;;;158.73;72.93;;;;;;;3.33;100.00;100082.56;1447464;90;22588;-87
2022/12/23 06:00:42;;;;;;;145.73;72.10;;;;;;;3.32;100.00;100077.46;1441453;90;23248;-87
2022/12/23 06:03:08;;;;;;;150.60;74.20;;;;;;;3.34;100.00;100076.89;1451128;89;22127;-86
2022/12/23 06:05:36;;;;;;;151.13;73.57;;;;;;;3.37;100.00;100076.67;1458477;89;22220;-87
2022/12/23 06:08:03;;;;;;;144.40;69.17;;;;;;;3.40;100.00;100077.75;1455897;89;23083;-88
2022/12/23 06:10:29;;;;;;;164.87;75.47;;;;;;;3.44;100.00;100073.95;1467854;89;22187;-87
2022/12/23 06:12:56;;;;;;;156.10;74.60;;;;;;;3.45;100.00;100078.71;1457538;89;22250;-84
2022/12/23 06:15:22;;;;;;;150.77;73.63;;;;;;;3.43;100.00;100077.53;1464400;89;22103;-86
2022/12/23 06:17:48;;;;;;;147.27;71.50;;;;;;;3.43;100.00;100081.45;1462769;89;22086;-86
2022/12/23 06:20:14;;;;;;;167.87;80.00;;;;;;;3.44;100.00;100085.73;1462306;89;22179;-86
2022/12/23 06:22:40;;;;;;;166.87;76.13;;;;;;;3.44;100.00;100088.34;1465233;89;22053;-88
2022/12/23 06:25:07;;;;;;;162.90;81.50;;;;;;;3.45;100.00;100083.95;1456756;89;22946;-87
2022/12/23 06:27:38;;;;;;;158.30;73.90;;;;;;;3.48;100.00;100092.43;1465852;89;21588;-86
2022/12/23 06:30:06;;;;;;;150.68;73.02;;;;;;;3.52;100.00;100083.40;1461117;89;23636;-85
2022/12/23 06:32:32;;;;;;;148.50;78.70;;;;;;;3.59;100.00;100078.55;1466358;89;21434;-86
2022/12/23 06:34:58;;;;;;;174.50;81.77;;;;;;;3.59;100.00;100078.55;1463094;89;22417;-87
2022/12/23 06:37:24;;;;;;;163.33;79.03;;;;;;;3.59;100.00;100082.00;1462792;89;22086;-87
2022/12/23 06:39:51;;;;;;;162.80;82.47;;;;;;;3.55;100.00;100087.10;1465043;89;22169;-87
2022/12/23 06:42:17;;;;;;;162.20;82.27;;;;;;;3.50;100.00;100085.28;1458918;89;22310;-86
2022/12/23 06:44:43;;;;;;;157.40;77.23;;;;;;;3.47;100.00;100089.91;1463332;89;23003;-83
2022/12/23 06:47:09;;;;;;;148.97;76.77;;;;;;;3.43;100.00;100093.23;1473647;89;22146;-82
2022/12/23 06:49:36;;;;;;;148.57;74.97;;;;;;;3.45;100.00;100094.41;1466033;89;22213;-85
2022/12/23 06:52:02;;;;;;;136.43;70.43;;;;;;;3.47;100.00;100092.05;1463743;89;21397;-87
2022/12/23 06:54:28;;;;;;;142.13;72.90;;;;;;;3.47;100.00;100092.05;1462904;89;22335;-86
2022/12/23 06:56:55;;;;;;;154.33;75.80;;;;;;;3.54;100.00;100093.30;1467138;89;22091;-88
2022/12/23 06:59:21;;;;;;;164.27;78.63;;;;;;;3.61;100.00;100085.34;1461116;89;22255;-87
2022/12/23 07:01:47;;;;;;;149.07;79.93;;;;;;;3.61;100.00;100085.34;1434322;89;21374;-86
2022/12/23 07:04:13;;;;;;;163.93;82.40;;;;;;;3.69;100.00;100104.52;1451728;89;22411;-83
2022/12/23 07:06:39;;;;;;;164.30;79.20;;;;;;;3.68;100.00;100104.52;1447411;90;22394;-81
2022/12/23 07:09:06;;;;;;;150.70;78.87;;;;;;;3.64;100.00;100090.00;1452777;90;21640;-81
2022/12/23 07:11:33;;;;;;;162.80;83.90;;;;;;;3.69;100.00;100097.05;1453408;89;21383;-80
2022/12/23 07:13:59;;;;;;;157.77;80.77;;;;;;;3.72;100.00;100103.38;1441943;89;22109;-78
2022/12/23 07:16:26;;;;;;;148.73;76.40;;;;;;;3.71;100.00;100101.61;1457030;90;22380;-80
2022/12/23 07:18:52;;;;;;;140.30;75.57;;;;;;;3.78;100.00;100101.61;1451049;90;22841;-82
2022/12/23 07:21:18;;;;;;;150.47;78.53;;;;;;;3.79;100.00;100098.04;1450267;89;21308;-80
2022/12/23 07:23:45;;;;;;;162.10;78.17;;;;;;;3.81;100.00;100107.45;1452429;90;22129;-81
2022/12/23 07:26:11;;;;;;;152.60;76.77;;;;;;;3.82;100.00;100110.42;1451451;90;21390;-80
2022/12/23 07:28:38;;;;;;;144.60;79.90;;;;;;;3.78;100.00;100110.78;1438108;90;22328;-80
2022/12/23 07:31:07;;;;;;;148.60;78.67;;;;;;;3.74;100.00;100108.86;1454293;90;21375;-78
2022/12/23 07:33:33;;;;;;;143.77;75.73;;;;;;;3.74;100.00;100108.86;1449085;90;21541;-80
2022/12/23 07:35:59;;;;;;;142.80;75.43;;;;;;;3.81;100.00;100114.00;1460905;90;21353;-80
2022/12/23 07:38:25;;;;;;;123.03;66.93;;;;;;;3.83;100.00;100106.88;1450139;90;21530;-80
2022/12/23 07:40:52;;;;;;;132.33;71.70;;;;;;;3.92;100.00;100121.08;1450085;89;22336;-80
2022/12/23 07:43:18;;;;;;;135.93;74.07;;;;;;;3.98;100.00;100119.54;1452266;89;21604;-80
2022/12/23 07:45:44;;;;;;;139.13;75.50;;;;;;;3.95;100.00;100119.54;1453362;90;21405;-80
2022/12/23 07:48:11;;;;;;;150.77;80.00;;;;;;;3.98;100.00;100125.86;1452226;90;21501;-80
2022/12/23 07:50:37;;;;;;;138.17;75.17;;;;;;;4.01;100.00;100128.73;1452511;90;21397;-80
2022/12/23 07:53:03;;;;;;;134.03;71.53;;;;;;;4.03;100.00;100125.53;1451811;90;21502;-80
2022/12/23 07:55:29;;;;;;;135.60;74.43;;;;;;;4.05;100.00;100119.20;1454388;90;21656;-81
2022/12/23 07:57:56;;;;;;;123.27;68.20;;;;;;;4.07;100.00;100119.11;1455838;90;21405;-81
2022/12/23 08:00:22;;;;;;;139.57;74.67;;;;;;;4.06;100.00;100121.38;1447803;90;21324;-81
2022/12/23 08:02:48;;;;;;;132.23;73.67;;;;;;;4.04;100.00;100127.19;1456462;89;21360;-79
2022/12/23 08:05:15;;;;;;;132.53;72.53;;;;;;;4.01;100.00;100116.95;1455279;89;22513;-80
2022/12/23 08:07:43;;;;;;;151.77;82.50;;;;;;;3.97;100.00;100125.51;1455037;89;21545;-79
2022/12/23 08:10:11;;;;;;;128.67;70.67;;;;;;;3.90;100.00;100126.06;1459890;89;22454;-80
2022/12/23 08:12:37;;;;;;;157.43;83.37;;;;;;;3.81;100.00;100123.64;1430502;91;21351;-81
2022/12/23 08:15:26;;;;;;;128.07;71.50;;;;;;;3.77;100.00;100116.94;1436293;91;22238;-80
2022/12/23 08:17:55;;;;;;;120.33;69.90;;;;;;;3.77;100.00;100116.94;1416475;92;21404;-81
2022/12/23 08:20:21;;;;;;;112.47;64.77;;;;;;;3.80;100.00;100127.22;1420428;92;21495;-82
2022/12/23 08:22:47;;;;;;;124.50;70.20;;;;;;;3.85;100.00;100138.16;1422660;92;22247;-78
2022/12/23 08:25:13;;;;;;;112.73;64.53;;;;;;;3.91;100.00;100142.13;1422613;92;21367;-80
2022/12/23 08:27:40;;;;;;;117.03;64.97;;;;;;;3.99;100.00;100139.78;1420142;92;21567;-82
2022/12/23 08:30:08;;;;;;;122.43;69.70;;;;;;;4.03;100.00;100125.05;1415098;92;21271;-82
2022/12/23 08:32:34;;;;;;;120.33;70.10;;;;;;;4.03;100.00;100125.05;1416746;92;22425;-83
2022/12/23 08:35:00;;;;;;;115.40;67.27;;;;;;;4.15;100.00;100132.95;1415765;92;21427;-81
2022/12/23 08:37:26;;;;;;;119.90;66.07;;;;;;;4.15;100.00;100132.95;1394343;92;21500;-82
2022/12/23 08:39:53;;;;;;;109.73;61.57;;;;;;;4.16;100.00;100137.23;1422765;92;21361;-82
2022/12/23 08:42:19;;;;;;;105.47;64.30;;;;;;;4.17;100.00;100134.52;1420257;92;21412;-82
2022/12/23 08:44:45;;;;;;;108.23;61.07;;;;;;;4.20;100.00;100137.36;1417175;92;22344;-82
2022/12/23 08:47:11;;;;;;;113.17;63.93;;;;;;;4.23;100.00;100137.98;1415679;92;21538;-82
2022/12/23 08:49:37;;;;;;;110.03;62.43;;;;;;;4.28;100.00;100131.08;1420583;92;21316;-82
2022/12/23 08:52:03;;;;;;;108.00;62.13;;;;;;;4.30;100.00;100131.33;1414703;92;22307;-82
2022/12/23 08:54:30;;;;;;;113.67;65.00;;;;;;;4.36;100.00;100134.44;1414493;92;21345;-82
2022/12/23 08:56:56;;;;;;;126.43;69.93;;;;;;;4.39;100.00;100131.11;1417876;92;21374;-83
2022/12/23 08:59:22;;;;;;;115.93;65.57;;;;;;;4.37;100.00;100133.00;1420144;92;21508;-83
2022/12/23 09:01:48;;;;;;;121.47;67.63;;;;;;;4.36;100.00;100131.34;1417417;92;21481;-82
2022/12/23 09:04:14;;;;;;;114.33;63.53;;;;;;;4.40;100.00;100128.87;1396673;92;21337;-79
2022/12/23 09:06:41;;;;;;;119.97;66.13;;;;;;;4.44;100.00;100122.44;1418214;92;22218;-83
2022/12/23 09:09:12;;;;;;;137.30;75.53;;;;;;;4.51;100.00;100122.80;1422903;92;22269;-83
2022/12/23 09:11:38;;;;;;;120.90;72.30;;;;;;;4.58;100.00;100124.02;1413356;92;21346;-81
2022/12/23 09:14:06;;;;;;;147.17;81.23;;;;;;;4.66;100.00;100124.72;1412991;92;22365;-82
2022/12/23 09:16:32;;;;;;;140.70;78.37;;;;;;;4.70;100.00;100121.77;1428265;91;21523;-82
2022/12/23 09:18:58;;;;;;;134.10;76.17;;;;;;;4.71;100.00;100113.42;1436626;90;22379;-82
2022/12/23 09:21:25;;;;;;;135.67;74.97;;;;;;;4.73;100.00;100118.08;1399161;91;21375;-83
2022/12/23 09:23:51;;;;;;;124.83;69.73;;;;;;;4.77;100.00;100112.94;1441399;90;21361;-82
2022/12/23 09:26:27;;;;;;;128.40;71.13;;;;;;;4.78;100.00;100113.80;1431802;91;22381;-83
2022/12/23 09:28:54;;;;;;;125.33;67.70;;;;;;;4.83;100.00;100107.70;1443126;90;21426;-82
2022/12/23 09:31:20;;;;;;;119.37;61.07;;;;;;;4.87;100.00;100103.42;1433711;91;22381;-80
2022/12/23 09:33:50;;;;;;;107.90;58.53;;;;;;;4.92;100.00;100105.22;1431909;91;22345;-83
2022/12/23 09:36:18;;;;;;;110.13;58.57;;;;;;;4.94;100.00;100099.84;1428756;90;21338;-84
2022/12/23 09:38:44;;;;;;;132.60;70.43;;;;;;;4.95;100.00;100099.73;1432964;91;22448;-82
2022/12/23 09:41:50;;;;;;;115.00;62.03;;;;;;;4.94;100.00;100104.60;1429873;91;21471;-82
2022/12/23 09:44:56;;;;;;;124.97;67.37;;;;;;;4.90;100.00;100094.01;1442318;90;23590;-83
2022/12/23 09:47:26;;;;;;;126.63;69.73;;;;;;;4.89;100.00;100081.00;1434778;91;21604;-83
2022/12/23 09:49:58;;;;;;;126.75;68.37;;;;;;;4.81;100.00;100070.30;1436970;90;21414;-83
2022/12/23 09:52:30;;;;;;;132.70;67.17;;;;;;;4.81;100.00;100082.93;1438925;91;21501;-84
2022/12/23 09:54:56;;;;;;;148.53;72.57;;;;;;;4.82;100.00;100096.39;1417791;91;21463;-82
2022/12/23 09:57:44;;;;;;;141.40;72.83;;;;;;;4.80;100.00;100099.59;1430974;90;21398;-83
2022/12/23 10:00:14;;;;;;;171.60;86.07;;;;;;;4.79;100.00;100096.62;1436577;91;21339;-83
2022/12/23 10:02:49;;;;;;;135.70;69.43;;;;;;;4.77;100.00;100099.00;1437108;90;21397;-83
2022/12/23 10:06:09;;;;;;;150.67;72.30;;;;;;;4.78;100.00;100095.45;1438340;91;21463;-82
2022/12/23 10:08:49;;;;;;;130.37;65.97;;;;;;;4.81;100.00;100085.55;1442253;91;21589;-83
2022/12/23 10:11:33;;;;;;;129.20;64.63;;;;;;;4.85;100.00;100086.97;1445764;90;21427;-81
2022/12/23 10:14:17;;;;;;;133.10;63.10;;;;;;;4.86;100.00;100079.93;1433764;91;22402;-82
2022/12/23 10:17:06;;;;;;;124.53;60.00;;;;;;;4.88;100.00;100078.86;1433154;91;21605;-83
2022/12/23 10:19:40;;;;;;;133.10;62.63;;;;;;;4.90;100.00;100073.52;1445691;90;21485;-83
2022/12/23 10:22:24;;;;;;;133.70;62.67;;;;;;;4.89;100.00;100080.55;1440378;90;21571;-83
2022/12/23 10:24:50;;;;;;;131.77;62.57;;;;;;;4.89;100.00;100074.00;1440478;91;22381;-83
2022/12/23 10:27:41;;;;;;;124.43;60.13;;;;;;;4.91;100.00;100067.30;1435709;91;21375;-82
2022/12/23 10:30:22;;;;;;;;;;;;;;;4.90;100.00;100073.03;1421228;91;22380;-82
2022/12/23 10:33:16;;;;;;;133.18;63.13;;;;;;;4.88;100.00;100072.30;1417326;92;20379;-82
2022/12/23 10:36:06;;;;;;;124.30;58.77;;;;;;;4.91;100.00;100074.69;1420007;92;21613;-83
2022/12/23 10:39:07;;;;;;;127.53;61.50;;;;;;;4.96;100.00;100083.03;1415025;92;21463;-83
2022/12/23 10:41:54;;;;;;;125.87;61.77;;;;;;;4.94;100.00;100088.87;1411432;92;21984;-82
2022/12/23 10:44:32;;;;;;;124.50;62.00;;;;;;;4.96;100.00;100075.17;1392111;94;21463;-83
2022/12/23 10:47:32;;;;;;;138.77;66.13;;;;;;;4.96;100.00;100076.48;1397827;93;21468;-81
2022/12/23 10:50:33;;;;;;;130.13;63.87;;;;;;;4.97;100.00;100068.95;1376328;93;21605;-83
2022/12/23 10:53:03;;;;;;;140.03;64.75;;;;;;;5.00;100.00;100065.75;1398928;93;21518;-84
2022/12/23 10:55:34;;;;;;;132.12;62.27;;;;;;;4.94;100.00;100057.39;1398676;93;22342;-83
2022/12/23 10:58:17;;;;;;;131.50;63.25;;;;;;;4.94;100.00;100050.84;1405213;93;21407;-82
2022/12/23 11:00:48;;;;;;;137.47;66.23;;;;;;;4.93;100.00;100040.00;1407705;93;21362;-83
2022/12/23 11:03:29;;;;;;;147.80;67.37;;;;;;;4.95;100.00;100032.86;1397462;93;21562;-84
2022/12/23 11:05:57;;;;;;;145.60;66.12;;;;;;;5.03;100.00;100020.91;1381630;93;21471;-83
2022/12/23 11:08:29;;;;;;;139.87;68.97;;;;;;;5.13;100.00;100013.99;1400819;93;21408;-83
2022/12/23 11:10:55;;;;;;;;;;;;;;;5.19;100.00;100006.94;1407705;93;22798;-83
2022/12/23 11:13:27;;;;;;;133.13;65.77;;;;;;;5.25;100.00;100001.19;1404892;93;20421;-81
2022/12/23 11:15:56;;;;;;;147.80;67.23;;;;;;;5.31;100.00;99994.13;1399890;93;22469;-84
2022/12/23 11:18:23;;;;;;;138.03;62.50;;;;;;;5.35;100.00;99991.63;1398298;93;22508;-83
2022/12/23 11:21:05;;;;;;;139.80;66.83;;;;;;;5.39;100.00;99987.78;1389667;94;21339;-83
2022/12/23 11:23:35;;;;;;;141.60;67.40;;;;;;;5.42;100.00;99984.91;1407159;93;21444;-83
2022/12/23 11:26:08;;;;;;;147.93;65.10;;;;;;;5.48;100.00;99986.69;1402106;93;21443;-83
2022/12/23 11:28:39;;;;;;;134.30;61.93;;;;;;;5.52;100.00;99973.16;1420474;91;21428;-83
2022/12/23 11:31:13;;;;;;;143.20;64.25;;;;;;;5.58;100.00;99974.45;1431639;91;22494;-82
2022/12/23 11:33:47;;;;;;;142.07;66.33;;;;;;;5.66;100.00;99965.47;1439101;91;21360;-83
2022/12/23 11:36:24;;;;;;;142.63;62.53;;;;;;;5.75;100.00;99963.87;1439587;91;21412;-83
2022/12/23 11:39:01;;;;;;;133.83;62.80;;;;;;;5.81;100.00;99970.78;1436036;90;21437;-83
2022/12/23 11:41:38;;;;;;;132.13;58.27;;;;;;;5.86;100.00;99968.58;1426001;91;21330;-82
2022/12/23 11:44:13;;;;;;;139.47;63.03;;;;;;;5.86;100.00;99962.49;1435965;91;22262;-81
2022/12/23 11:46:39;;;;;;;122.33;55.33;;;;;;;5.88;100.00;99956.16;1434229;91;21397;-84
2022/12/23 11:49:17;;;;;;;131.23;58.27;;;;;;;5.92;100.00;99936.20;1436609;90;21598;-84
2022/12/23 11:51:48;;;;;;;138.80;61.10;;;;;;;5.95;100.00;99927.60;1443517;90;21472;-83
2022/12/23 11:54:19;;;;;;;139.32;57.50;;;;;;;5.98;100.00;99925.20;1434560;91;21435;-80